Terminal Aerodrome Forecast
Issued by NWS

Home | Current Version | Previous Version | Text Only | Print | Product List | Glossary On
Versions: 1 2 3 4 5 6 7 8 9 10 11 12 13
656
FTUS43 KLSX 062320
TAFCPS
TAF
KCPS 062320Z 0700/0724 25008KT P6SM FEW250
     FM070700 22006KT P6SM BKN250
     FM071900 27014KT P6SM BKN100
     FM072100 29018G28KT P6SM SCT050 OVC100=

USA.gov is the U.S. government's official web portal to all federal, state and local government web resources and services.